sensor_id;sensor_type;location;lat;lon;timestamp;pressure;altitude;pressure_sealevel;temperature
43292;BMP280;28754;47.700;7.924;2022-08-04T00:01:52;91450.53;;;25.02
43292;BMP280;28754;47.700;7.924;2022-08-04T00:04:55;91446.50;;;25.04
43292;BMP280;28754;47.700;7.924;2022-08-04T00:08:04;91442.75;;;25.05
43292;BMP280;28754;47.700;7.924;2022-08-04T00:10:54;91447.09;;;24.98
43292;BMP280;28754;47.700;7.924;2022-08-04T00:13:46;91442.50;;;24.95
43292;BMP280;28754;47.700;7.924;2022-08-04T00:16:37;91447.69;;;24.91
43292;BMP280;28754;47.700;7.924;2022-08-04T00:19:35;91448.44;;;24.92
43292;BMP280;28754;47.700;7.924;2022-08-04T00:22:28;91431.28;;;24.94
43292;BMP280;28754;47.700;7.924;2022-08-04T00:25:15;91447.41;;;24.96
43292;BMP280;28754;47.700;7.924;2022-08-04T00:28:02;91436.63;;;24.98
43292;BMP280;28754;47.700;7.924;2022-08-04T00:30:51;91444.81;;;24.96
43292;BMP280;28754;47.700;7.924;2022-08-04T00:33:38;91445.84;;;24.92
43292;BMP280;28754;47.700;7.924;2022-08-04T00:36:27;91439.28;;;24.86
43292;BMP280;28754;47.700;7.924;2022-08-04T00:39:16;91451.22;;;24.83
43292;BMP280;28754;47.700;7.924;2022-08-04T00:42:40;91433.97;;;24.82
43292;BMP280;28754;47.700;7.924;2022-08-04T00:45:58;91449.03;;;24.85
43292;BMP280;28754;47.700;7.924;2022-08-04T00:56:18;91440.22;;;24.78
43292;BMP280;28754;47.700;7.924;2022-08-04T01:05:52;91437.97;;;24.77
43292;BMP280;28754;47.700;7.924;2022-08-04T01:09:03;91449.94;;;24.78
43292;BMP280;28754;47.700;7.924;2022-08-04T01:18:20;91446.47;;;24.74
43292;BMP280;28754;47.700;7.924;2022-08-04T01:24:54;91437.44;;;24.71
43292;BMP280;28754;47.700;7.924;2022-08-04T01:31:25;91442.44;;;24.61
43292;BMP280;28754;47.700;7.924;2022-08-04T01:34:18;91439.81;;;24.61
43292;BMP280;28754;47.700;7.924;2022-08-04T01:37:20;91433.06;;;24.60
43292;BMP280;28754;47.700;7.924;2022-08-04T01:40:14;91442.44;;;24.61
43292;BMP280;28754;47.700;7.924;2022-08-04T01:43:03;91444.22;;;24.57
43292;BMP280;28754;47.700;7.924;2022-08-04T01:45:57;91438.56;;;24.55
43292;BMP280;28754;47.700;7.924;2022-08-04T01:48:46;91431.06;;;24.53
43292;BMP280;28754;47.700;7.924;2022-08-04T01:51:38;91432.91;;;24.53
43292;BMP280;28754;47.700;7.924;2022-08-04T01:54:25;91436.13;;;24.47
43292;BMP280;28754;47.700;7.924;2022-08-04T01:57:16;91429.94;;;24.39
43292;BMP280;28754;47.700;7.924;2022-08-04T02:00:05;91423.81;;;24.32
43292;BMP280;28754;47.700;7.924;2022-08-04T02:02:54;91439.41;;;24.28
43292;BMP280;28754;47.700;7.924;2022-08-04T02:05:47;91429.38;;;24.30
43292;BMP280;28754;47.700;7.924;2022-08-04T02:21:42;91422.38;;;24.34
43292;BMP280;28754;47.700;7.924;2022-08-04T02:24:32;91425.41;;;24.36
43292;BMP280;28754;47.700;7.924;2022-08-04T02:27:28;91422.00;;;24.36
43292;BMP280;28754;47.700;7.924;2022-08-04T02:30:17;91421.69;;;24.37
43292;BMP280;28754;47.700;7.924;2022-08-04T02:33:07;91419.75;;;24.34
43292;BMP280;28754;47.700;7.924;2022-08-04T02:36:00;91424.63;;;24.36
43292;BMP280;28754;47.700;7.924;2022-08-04T02:39:00;91418.22;;;24.33
43292;BMP280;28754;47.700;7.924;2022-08-04T02:41:49;91421.94;;;24.32
43292;BMP280;28754;47.700;7.924;2022-08-04T02:44:38;91413.34;;;24.32
43292;BMP280;28754;47.700;7.924;2022-08-04T02:47:27;91417.03;;;24.31
43292;BMP280;28754;47.700;7.924;2022-08-04T02:50:17;91418.91;;;24.30
43292;BMP280;28754;47.700;7.924;2022-08-04T02:53:04;91416.97;;;24.27
43292;BMP280;28754;47.700;7.924;2022-08-04T02:55:54;91421.41;;;24.27
43292;BMP280;28754;47.700;7.924;2022-08-04T02:58:45;91407.56;;;24.26
43292;BMP280;28754;47.700;7.924;2022-08-04T03:01:35;91415.44;;;24.26
43292;BMP280;28754;47.700;7.924;2022-08-04T03:08:14;91413.56;;;24.27
43292;BMP280;28754;47.700;7.924;2022-08-04T03:11:25;91416.53;;;24.25
43292;BMP280;28754;47.700;7.924;2022-08-04T03:38:22;91417.69;;;24.13
43292;BMP280;28754;47.700;7.924;2022-08-04T03:44:53;91417.47;;;24.06
43292;BMP280;28754;47.700;7.924;2022-08-04T03:48:04;91418.69;;;24.08
43292;BMP280;28754;47.700;7.924;2022-08-04T04:01:09;91432.00;;;24.03
43292;BMP280;28754;47.700;7.924;2022-08-04T04:04:36;91433.84;;;24.03
43292;BMP280;28754;47.700;7.924;2022-08-04T04:18:11;91435.88;;;23.94
43292;BMP280;28754;47.700;7.924;2022-08-04T04:21:50;91429.78;;;23.90
43292;BMP280;28754;47.700;7.924;2022-08-04T04:28:50;91436.88;;;23.89
43292;BMP280;28754;47.700;7.924;2022-08-04T04:32:11;91428.50;;;23.84
43292;BMP280;28754;47.700;7.924;2022-08-04T04:39:00;91436.28;;;23.80
43292;BMP280;28754;47.700;7.924;2022-08-04T04:46:02;91446.03;;;23.68
43292;BMP280;28754;47.700;7.924;2022-08-04T04:49:16;91439.06;;;23.60
43292;BMP280;28754;47.700;7.924;2022-08-04T04:52:17;91438.22;;;23.56
43292;BMP280;28754;47.700;7.924;2022-08-04T04:55:20;91443.88;;;23.58
43292;BMP280;28754;47.700;7.924;2022-08-04T04:58:14;91440.50;;;23.58
43292;BMP280;28754;47.700;7.924;2022-08-04T05:08:20;91451.44;;;23.75
43292;BMP280;28754;47.700;7.924;2022-08-04T05:11:34;91451.19;;;23.80
43292;BMP280;28754;47.700;7.924;2022-08-04T05:14:33;91455.84;;;23.86
43292;BMP280;28754;47.700;7.924;2022-08-04T05:17:27;91449.63;;;23.91
43292;BMP280;28754;47.700;7.924;2022-08-04T05:20:24;91451.25;;;23.95
43292;BMP280;28754;47.700;7.924;2022-08-04T05:23:17;91458.84;;;24.00
43292;BMP280;28754;47.700;7.924;2022-08-04T05:26:14;91459.69;;;24.04
43292;BMP280;28754;47.700;7.924;2022-08-04T05:29:08;91461.31;;;24.09
43292;BMP280;28754;47.700;7.924;2022-08-04T05:32:01;91466.28;;;24.13
43292;BMP280;28754;47.700;7.924;2022-08-04T05:35:08;91466.03;;;24.18
43292;BMP280;28754;47.700;7.924;2022-08-04T05:37:59;91462.09;;;24.24
43292;BMP280;28754;47.700;7.924;2022-08-04T05:40:49;91474.94;;;24.29
43292;BMP280;28754;47.700;7.924;2022-08-04T05:43:42;91461.19;;;24.32
43292;BMP280;28754;47.700;7.924;2022-08-04T05:46:30;91464.66;;;24.36
43292;BMP280;28754;47.700;7.924;2022-08-04T05:49:21;91468.13;;;24.40
43292;BMP280;28754;47.700;7.924;2022-08-04T05:52:10;91460.34;;;24.44
43292;BMP280;28754;47.700;7.924;2022-08-04T05:54:59;91463.47;;;24.49
43292;BMP280;28754;47.700;7.924;2022-08-04T05:57:47;91468.13;;;24.55
43292;BMP280;28754;47.700;7.924;2022-08-04T06:00:36;91469.72;;;24.60
43292;BMP280;28754;47.700;7.924;2022-08-04T06:03:26;91470.59;;;24.64
43292;BMP280;28754;47.700;7.924;2022-08-04T06:06:17;91475.56;;;24.69
43292;BMP280;28754;47.700;7.924;2022-08-04T06:09:04;91465.19;;;24.72
43292;BMP280;28754;47.700;7.924;2022-08-04T06:11:53;91475.06;;;24.79
43292;BMP280;28754;47.700;7.924;2022-08-04T06:14:48;91465.41;;;24.82
43292;BMP280;28754;47.700;7.924;2022-08-04T06:17:40;91471.91;;;24.88
43292;BMP280;28754;47.700;7.924;2022-08-04T06:20:32;91467.13;;;24.90
43292;BMP280;28754;47.700;7.924;2022-08-04T06:23:26;91467.25;;;24.97
43292;BMP280;28754;47.700;7.924;2022-08-04T06:26:17;91477.94;;;25.04
43292;BMP280;28754;47.700;7.924;2022-08-04T06:29:06;91472.16;;;25.14
43292;BMP280;28754;47.700;7.924;2022-08-04T06:32:05;91468.59;;;25.22
43292;BMP280;28754;47.700;7.924;2022-08-04T06:35:16;91455.34;;;25.34
43292;BMP280;28754;47.700;7.924;2022-08-04T06:38:04;91469.00;;;25.43
43292;BMP280;28754;47.700;7.924;2022-08-04T06:40:53;91468.47;;;25.52
43292;BMP280;28754;47.700;7.924;2022-08-04T06:43:40;91455.19;;;25.61
43292;BMP280;28754;47.700;7.924;2022-08-04T06:46:29;91469.56;;;25.67
43292;BMP280;28754;47.700;7.924;2022-08-04T06:49:17;91476.41;;;25.71
43292;BMP280;28754;47.700;7.924;2022-08-04T06:52:05;91476.13;;;25.76
43292;BMP280;28754;47.700;7.924;2022-08-04T06:54:53;91478.19;;;25.86
43292;BMP280;28754;47.700;7.924;2022-08-04T06:57:42;91476.47;;;25.93
43292;BMP280;28754;47.700;7.924;2022-08-04T07:00:33;91481.84;;;26.00
43292;BMP280;28754;47.700;7.924;2022-08-04T07:03:20;91475.56;;;26.05
43292;BMP280;28754;47.700;7.924;2022-08-04T07:06:07;91486.94;;;26.12
43292;BMP280;28754;47.700;7.924;2022-08-04T07:08:54;91489.31;;;26.17
43292;BMP280;28754;47.700;7.924;2022-08-04T07:11:42;91484.22;;;26.24
43292;BMP280;28754;47.700;7.924;2022-08-04T07:14:30;91485.00;;;26.28
43292;BMP280;28754;47.700;7.924;2022-08-04T07:17:22;91488.47;;;26.32
43292;BMP280;28754;47.700;7.924;2022-08-04T07:20:09;91485.56;;;26.37
43292;BMP280;28754;47.700;7.924;2022-08-04T07:22:57;91482.31;;;26.43
43292;BMP280;28754;47.700;7.924;2022-08-04T07:26:04;91486.16;;;26.49
43292;BMP280;28754;47.700;7.924;2022-08-04T07:28:51;91481.00;;;26.56
43292;BMP280;28754;47.700;7.924;2022-08-04T07:31:38;91496.91;;;26.63
43292;BMP280;28754;47.700;7.924;2022-08-04T07:34:25;91490.13;;;26.62
43292;BMP280;28754;47.700;7.924;2022-08-04T07:37:12;91495.44;;;26.65
43292;BMP280;28754;47.700;7.924;2022-08-04T07:40:00;91493.97;;;26.68
43292;BMP280;28754;47.700;7.924;2022-08-04T07:42:47;91479.03;;;26.72
43292;BMP280;28754;47.700;7.924;2022-08-04T07:45:34;91473.81;;;26.75
43292;BMP280;28754;47.700;7.924;2022-08-04T07:48:21;91492.38;;;26.82
43292;BMP280;28754;47.700;7.924;2022-08-04T07:51:10;91488.31;;;26.88
43292;BMP280;28754;47.700;7.924;2022-08-04T07:53:58;91483.94;;;26.95
43292;BMP280;28754;47.700;7.924;2022-08-04T07:56:46;91477.16;;;26.94
43292;BMP280;28754;47.700;7.924;2022-08-04T07:59:35;91486.59;;;26.95
43292;BMP280;28754;47.700;7.924;2022-08-04T08:02:22;91486.25;;;26.97
43292;BMP280;28754;47.700;7.924;2022-08-04T08:05:13;91481.75;;;26.97
43292;BMP280;28754;47.700;7.924;2022-08-04T08:08:00;91486.00;;;27.05
43292;BMP280;28754;47.700;7.924;2022-08-04T08:10:47;91486.50;;;27.14
43292;BMP280;28754;47.700;7.924;2022-08-04T08:13:35;91488.81;;;27.19
43292;BMP280;28754;47.700;7.924;2022-08-04T08:16:22;91484.38;;;27.23
43292;BMP280;28754;47.700;7.924;2022-08-04T08:19:09;91485.59;;;27.29
43292;BMP280;28754;47.700;7.924;2022-08-04T08:21:58;91493.91;;;27.31
43292;BMP280;28754;47.700;7.924;2022-08-04T08:24:45;91492.88;;;27.39
43292;BMP280;28754;47.700;7.924;2022-08-04T08:27:32;91489.97;;;27.44
43292;BMP280;28754;47.700;7.924;2022-08-04T08:30:19;91489.34;;;27.54
43292;BMP280;28754;47.700;7.924;2022-08-04T08:33:11;91487.94;;;27.60
43292;BMP280;28754;47.700;7.924;2022-08-04T08:36:14;91496.66;;;27.67
43292;BMP280;28754;47.700;7.924;2022-08-04T08:39:27;91498.59;;;27.70
43292;BMP280;28754;47.700;7.924;2022-08-04T08:45:34;91494.66;;;27.86
43292;BMP280;28754;47.700;7.924;2022-08-04T08:55:25;91497.00;;;27.91
43292;BMP280;28754;47.700;7.924;2022-08-04T08:58:34;91498.91;;;27.94
43292;BMP280;28754;47.700;7.924;2022-08-04T09:11:26;91498.72;;;28.06
43292;BMP280;28754;47.700;7.924;2022-08-04T09:14:24;91501.41;;;28.13
43292;BMP280;28754;47.700;7.924;2022-08-04T09:17:25;91500.28;;;28.14
43292;BMP280;28754;47.700;7.924;2022-08-04T09:22:06;91492.47;;;28.21
43292;BMP280;28754;47.700;7.924;2022-08-04T09:27:37;91505.75;;;28.31
43292;BMP280;28754;47.700;7.924;2022-08-04T09:33:41;91500.19;;;28.39
43292;BMP280;28754;47.700;7.924;2022-08-04T09:36:46;91507.69;;;28.37
43292;BMP280;28754;47.700;7.924;2022-08-04T09:40:01;91502.06;;;28.39
43292;BMP280;28754;47.700;7.924;2022-08-04T09:46:13;91502.19;;;28.49
43292;BMP280;28754;47.700;7.924;2022-08-04T09:55:49;91507.75;;;28.77
43292;BMP280;28754;47.700;7.924;2022-08-04T09:59:08;91507.09;;;28.87
43292;BMP280;28754;47.700;7.924;2022-08-04T10:02:03;91502.34;;;29.02
43292;BMP280;28754;47.700;7.924;2022-08-04T10:04:56;91493.41;;;29.14
43292;BMP280;28754;47.700;7.924;2022-08-04T10:18:25;91481.81;;;29.22
43292;BMP280;28754;47.700;7.924;2022-08-04T10:28:27;91485.97;;;29.30
43292;BMP280;28754;47.700;7.924;2022-08-04T10:31:25;91483.03;;;29.38
43292;BMP280;28754;47.700;7.924;2022-08-04T10:34:20;91482.75;;;29.53
43292;BMP280;28754;47.700;7.924;2022-08-04T10:40:30;91481.75;;;29.72
43292;BMP280;28754;47.700;7.924;2022-08-04T10:43:41;91483.63;;;29.68
43292;BMP280;28754;47.700;7.924;2022-08-04T10:46:41;91474.91;;;29.67
43292;BMP280;28754;47.700;7.924;2022-08-04T10:49:45;91477.97;;;29.69
43292;BMP280;28754;47.700;7.924;2022-08-04T10:52:54;91468.22;;;29.73
43292;BMP280;28754;47.700;7.924;2022-08-04T10:56:07;91471.63;;;29.80
43292;BMP280;28754;47.700;7.924;2022-08-04T10:59:03;91467.09;;;29.81
43292;BMP280;28754;47.700;7.924;2022-08-04T11:02:00;91470.53;;;29.88
43292;BMP280;28754;47.700;7.924;2022-08-04T11:05:00;91461.56;;;30.03
43292;BMP280;28754;47.700;7.924;2022-08-04T11:07:59;91460.09;;;30.16
43292;BMP280;28754;47.700;7.924;2022-08-04T11:11:12;91457.13;;;30.28
43292;BMP280;28754;47.700;7.924;2022-08-04T11:14:18;91464.69;;;30.29
43292;BMP280;28754;47.700;7.924;2022-08-04T11:17:15;91459.78;;;30.31
43292;BMP280;28754;47.700;7.924;2022-08-04T11:23:16;91461.66;;;30.27
43292;BMP280;28754;47.700;7.924;2022-08-04T11:27:15;91446.22;;;30.33
43292;BMP280;28754;47.700;7.924;2022-08-04T11:30:12;91466.19;;;30.34
43292;BMP280;28754;47.700;7.924;2022-08-04T11:33:18;91467.72;;;30.38
43292;BMP280;28754;47.700;7.924;2022-08-04T11:39:21;91462.50;;;30.59
43292;BMP280;28754;47.700;7.924;2022-08-04T11:42:30;91460.97;;;30.61
43292;BMP280;28754;47.700;7.924;2022-08-04T11:45:59;91468.19;;;30.71
43292;BMP280;28754;47.700;7.924;2022-08-04T11:49:00;91472.34;;;30.79
43292;BMP280;28754;47.700;7.924;2022-08-04T11:51:50;91470.84;;;30.85
43292;BMP280;28754;47.700;7.924;2022-08-04T11:54:38;91455.38;;;30.87
43292;BMP280;28754;47.700;7.924;2022-08-04T11:57:27;91460.69;;;30.90
43292;BMP280;28754;47.700;7.924;2022-08-04T12:00:16;91460.28;;;30.92
43292;BMP280;28754;47.700;7.924;2022-08-04T12:13:38;91457.63;;;31.19
43292;BMP280;28754;47.700;7.924;2022-08-04T12:16:41;91452.34;;;31.19
43292;BMP280;28754;47.700;7.924;2022-08-04T12:19:52;91449.69;;;31.09
43292;BMP280;28754;47.700;7.924;2022-08-04T12:22:46;91446.69;;;31.11
43292;BMP280;28754;47.700;7.924;2022-08-04T12:25:43;91448.19;;;31.18
43292;BMP280;28754;47.700;7.924;2022-08-04T12:28:36;91462.16;;;31.26
43292;BMP280;28754;47.700;7.924;2022-08-04T12:31:47;91445.56;;;31.32
43292;BMP280;28754;47.700;7.924;2022-08-04T12:34:48;91444.06;;;31.31
43292;BMP280;28754;47.700;7.924;2022-08-04T12:37:59;91447.06;;;31.37
43292;BMP280;28754;47.700;7.924;2022-08-04T12:40:56;91430.81;;;31.38
43292;BMP280;28754;47.700;7.924;2022-08-04T12:43:43;91436.09;;;31.42
43292;BMP280;28754;47.700;7.924;2022-08-04T12:46:34;91435.34;;;31.34
43292;BMP280;28754;47.700;7.924;2022-08-04T12:49:23;91443.66;;;31.33
43292;BMP280;28754;47.700;7.924;2022-08-04T12:52:16;91430.06;;;31.34
43292;BMP280;28754;47.700;7.924;2022-08-04T12:55:04;91434.56;;;31.37
43292;BMP280;28754;47.700;7.924;2022-08-04T12:57:52;91427.03;;;31.36
43292;BMP280;28754;47.700;7.924;2022-08-04T13:00:38;91425.50;;;31.35
43292;BMP280;28754;47.700;7.924;2022-08-04T13:03:43;91433.84;;;31.33
43292;BMP280;28754;47.700;7.924;2022-08-04T13:06:33;91430.81;;;31.42
43292;BMP280;28754;47.700;7.924;2022-08-04T13:09:25;91430.78;;;31.48
43292;BMP280;28754;47.700;7.924;2022-08-04T13:12:23;91422.47;;;31.57
43292;BMP280;28754;47.700;7.924;2022-08-04T13:15:16;91423.94;;;31.65
43292;BMP280;28754;47.700;7.924;2022-08-04T13:18:10;91425.06;;;31.74
43292;BMP280;28754;47.700;7.924;2022-08-04T13:21:17;91417.06;;;31.78
43292;BMP280;28754;47.700;7.924;2022-08-04T13:24:11;91416.38;;;31.81
43292;BMP280;28754;47.700;7.924;2022-08-04T13:27:11;91408.38;;;31.87
43292;BMP280;28754;47.700;7.924;2022-08-04T13:29:59;91413.28;;;31.92
43292;BMP280;28754;47.700;7.924;2022-08-04T13:32:46;91411.75;;;31.95
43292;BMP280;28754;47.700;7.924;2022-08-04T13:35:44;91404.19;;;31.97
43292;BMP280;28754;47.700;7.924;2022-08-04T13:38:32;91397.00;;;31.97
43292;BMP280;28754;47.700;7.924;2022-08-04T13:41:21;91401.09;;;32.05
43292;BMP280;28754;47.700;7.924;2022-08-04T13:44:10;91387.81;;;32.12
43292;BMP280;28754;47.700;7.924;2022-08-04T13:47:06;91392.38;;;32.15
43292;BMP280;28754;47.700;7.924;2022-08-04T13:50:26;91396.88;;;32.18
43292;BMP280;28754;47.700;7.924;2022-08-04T13:53:17;91378.38;;;32.11
43292;BMP280;28754;47.700;7.924;2022-08-04T13:56:08;91382.94;;;32.11
43292;BMP280;28754;47.700;7.924;2022-08-04T13:58:59;91379.88;;;32.12
43292;BMP280;28754;47.700;7.924;2022-08-04T14:01:59;91383.63;;;32.18
43292;BMP280;28754;47.700;7.924;2022-08-04T14:04:53;91372.22;;;32.31
43292;BMP280;28754;47.700;7.924;2022-08-04T14:07:54;91378.66;;;32.34
43292;BMP280;28754;47.700;7.924;2022-08-04T14:10:41;91377.88;;;32.33
43292;BMP280;28754;47.700;7.924;2022-08-04T14:13:33;91372.97;;;32.28
43292;BMP280;28754;47.700;7.924;2022-08-04T14:16:21;91374.50;;;32.29
43292;BMP280;28754;47.700;7.924;2022-08-04T14:19:07;91374.50;;;32.33
43292;BMP280;28754;47.700;7.924;2022-08-04T14:21:54;91360.06;;;32.41
43292;BMP280;28754;47.700;7.924;2022-08-04T14:24:41;91373.00;;;32.32
43292;BMP280;28754;47.700;7.924;2022-08-04T14:27:50;91365.41;;;32.27
43292;BMP280;28754;47.700;7.924;2022-08-04T14:30:40;91351.78;;;32.28
43292;BMP280;28754;47.700;7.924;2022-08-04T14:33:37;91346.50;;;32.32
43292;BMP280;28754;47.700;7.924;2022-08-04T14:36:24;91359.31;;;32.37
43292;BMP280;28754;47.700;7.924;2022-08-04T14:39:12;91353.97;;;32.44
43292;BMP280;28754;47.700;7.924;2022-08-04T14:41:58;91358.09;;;32.48
43292;BMP280;28754;47.700;7.924;2022-08-04T14:44:58;91344.84;;;32.52
43292;BMP280;28754;47.700;7.924;2022-08-04T14:47:52;91355.75;;;32.57
43292;BMP280;28754;47.700;7.924;2022-08-04T14:50:45;91352.28;;;32.67
43292;BMP280;28754;47.700;7.924;2022-08-04T14:53:36;91355.22;;;32.79
43292;BMP280;28754;47.700;7.924;2022-08-04T14:56:23;91355.94;;;32.87
43292;BMP280;28754;47.700;7.924;2022-08-04T14:59:10;91348.34;;;32.88
43292;BMP280;28754;47.700;7.924;2022-08-04T15:01:57;91353.28;;;32.90
43292;BMP280;28754;47.700;7.924;2022-08-04T15:04:46;91351.44;;;32.84
43292;BMP280;28754;47.700;7.924;2022-08-04T15:07:33;91344.63;;;32.79
43292;BMP280;28754;47.700;7.924;2022-08-04T15:10:20;91348.03;;;32.83
43292;BMP280;28754;47.700;7.924;2022-08-04T15:13:07;91338.91;;;32.84
43292;BMP280;28754;47.700;7.924;2022-08-04T15:15:55;91344.63;;;32.76
43292;BMP280;28754;47.700;7.924;2022-08-04T15:18:42;91336.00;;;32.68
43292;BMP280;28754;47.700;7.924;2022-08-04T15:21:29;91336.81;;;32.58
43292;BMP280;28754;47.700;7.924;2022-08-04T15:24:16;91333.50;;;32.51
43292;BMP280;28754;47.700;7.924;2022-08-04T15:27:04;91339.16;;;32.50
43292;BMP280;28754;47.700;7.924;2022-08-04T15:30:01;91337.28;;;32.50
43292;BMP280;28754;47.700;7.924;2022-08-04T15:32:51;91328.19;;;32.51
43292;BMP280;28754;47.700;7.924;2022-08-04T15:35:43;91332.31;;;32.55
43292;BMP280;28754;47.700;7.924;2022-08-04T15:45:25;91328.13;;;32.61
43292;BMP280;28754;47.700;7.924;2022-08-04T15:51:00;91319.06;;;32.55
43292;BMP280;28754;47.700;7.924;2022-08-04T15:56:49;91314.25;;;32.40
43292;BMP280;28754;47.700;7.924;2022-08-04T16:00:08;91309.75;;;32.34
43292;BMP280;28754;47.700;7.924;2022-08-04T16:02:58;91307.50;;;32.32
43292;BMP280;28754;47.700;7.924;2022-08-04T16:05:45;91310.16;;;32.32
43292;BMP280;28754;47.700;7.924;2022-08-04T16:11:58;91310.88;;;32.33
43292;BMP280;28754;47.700;7.924;2022-08-04T16:19:27;91303.31;;;32.31
43292;BMP280;28754;47.700;7.924;2022-08-04T16:22:50;91298.03;;;32.28
43292;BMP280;28754;47.700;7.924;2022-08-04T16:25:45;91297.31;;;32.20
43292;BMP280;28754;47.700;7.924;2022-08-04T16:28:41;91294.34;;;32.15
43292;BMP280;28754;47.700;7.924;2022-08-04T16:31:37;91304.63;;;32.06
43292;BMP280;28754;47.700;7.924;2022-08-04T16:34:27;91308.09;;;31.93
43292;BMP280;28754;47.700;7.924;2022-08-04T16:37:15;91299.03;;;31.90
43292;BMP280;28754;47.700;7.924;2022-08-04T16:40:24;91302.84;;;31.79
43292;BMP280;28754;47.700;7.924;2022-08-04T16:43:17;91305.13;;;31.74
43292;BMP280;28754;47.700;7.924;2022-08-04T16:46:04;91302.88;;;31.72
43292;BMP280;28754;47.700;7.924;2022-08-04T16:49:11;91298.75;;;31.68
43292;BMP280;28754;47.700;7.924;2022-08-04T16:52:06;91300.66;;;31.64
43292;BMP280;28754;47.700;7.924;2022-08-04T16:54:57;91297.69;;;31.55
43292;BMP280;28754;47.700;7.924;2022-08-04T16:57:49;91300.38;;;31.48
43292;BMP280;28754;47.700;7.924;2022-08-04T17:00:37;91301.16;;;31.38
43292;BMP280;28754;47.700;7.924;2022-08-04T17:03:24;91295.50;;;31.29
43292;BMP280;28754;47.700;7.924;2022-08-04T17:06:14;91293.25;;;31.21
43292;BMP280;28754;47.700;7.924;2022-08-04T17:09:16;91294.75;;;31.15
43292;BMP280;28754;47.700;7.924;2022-08-04T17:12:03;91294.00;;;31.11
43292;BMP280;28754;47.700;7.924;2022-08-04T17:14:49;91292.13;;;31.11
43292;BMP280;28754;47.700;7.924;2022-08-04T17:17:36;91300.06;;;31.11
43292;BMP280;28754;47.700;7.924;2022-08-04T17:20:26;91298.56;;;31.11
43292;BMP280;28754;47.700;7.924;2022-08-04T17:26:21;91290.66;;;31.04
43292;BMP280;28754;47.700;7.924;2022-08-04T17:29:08;91290.28;;;31.02
43292;BMP280;28754;47.700;7.924;2022-08-04T17:31:55;91295.97;;;30.97
43292;BMP280;28754;47.700;7.924;2022-08-04T17:34:47;91293.31;;;30.90
43292;BMP280;28754;47.700;7.924;2022-08-04T17:37:34;91293.34;;;30.86
43292;BMP280;28754;47.700;7.924;2022-08-04T17:40:21;91296.75;;;30.80
43292;BMP280;28754;47.700;7.924;2022-08-04T17:43:07;91293.31;;;30.73
43292;BMP280;28754;47.700;7.924;2022-08-04T17:46:22;91296.72;;;30.66
43292;BMP280;28754;47.700;7.924;2022-08-04T17:52:01;91292.22;;;30.56
43292;BMP280;28754;47.700;7.924;2022-08-04T17:54:58;91292.56;;;30.51
43292;BMP280;28754;47.700;7.924;2022-08-04T17:57:47;91300.50;;;30.51
43292;BMP280;28754;47.700;7.924;2022-08-04T18:00:35;91300.91;;;30.46
43292;BMP280;28754;47.700;7.924;2022-08-04T18:03:24;91297.50;;;30.42
43292;BMP280;28754;47.700;7.924;2022-08-04T18:06:11;91297.50;;;30.39
43292;BMP280;28754;47.700;7.924;2022-08-04T18:08:58;91297.13;;;30.34
43292;BMP280;28754;47.700;7.924;2022-08-04T18:11:57;91300.91;;;30.29
43292;BMP280;28754;47.700;7.924;2022-08-04T18:14:47;91297.50;;;30.25
43292;BMP280;28754;47.700;7.924;2022-08-04T18:17:43;91298.59;;;30.21
43292;BMP280;28754;47.700;7.924;2022-08-04T18:20:33;91300.88;;;30.15
43292;BMP280;28754;47.700;7.924;2022-08-04T18:23:19;91300.84;;;30.12
43292;BMP280;28754;47.700;7.924;2022-08-04T18:26:06;91306.53;;;30.07
43292;BMP280;28754;47.700;7.924;2022-08-04T18:28:53;91306.13;;;30.05
43292;BMP280;28754;47.700;7.924;2022-08-04T18:31:39;91304.63;;;30.01
43292;BMP280;28754;47.700;7.924;2022-08-04T18:34:26;91312.13;;;29.95
43292;BMP280;28754;47.700;7.924;2022-08-04T18:37:13;91310.25;;;29.92
43292;BMP280;28754;47.700;7.924;2022-08-04T18:40:00;91320.06;;;29.88
43292;BMP280;28754;47.700;7.924;2022-08-04T18:42:47;91317.41;;;29.81
43292;BMP280;28754;47.700;7.924;2022-08-04T18:45:33;91310.59;;;29.77
43292;BMP280;28754;47.700;7.924;2022-08-04T18:48:20;91312.84;;;29.72
43292;BMP280;28754;47.700;7.924;2022-08-04T18:51:07;91309.03;;;29.66
43292;BMP280;28754;47.700;7.924;2022-08-04T18:53:53;91313.91;;;29.64
43292;BMP280;28754;47.700;7.924;2022-08-04T18:56:40;91314.28;;;29.59
43292;BMP280;28754;47.700;7.924;2022-08-04T18:59:27;91306.34;;;29.52
43292;BMP280;28754;47.700;7.924;2022-08-04T19:02:14;91318.78;;;29.48
43292;BMP280;28754;47.700;7.924;2022-08-04T19:05:01;91321.38;;;29.44
43292;BMP280;28754;47.700;7.924;2022-08-04T19:07:48;91308.94;;;29.38
43292;BMP280;28754;47.700;7.924;2022-08-04T19:10:34;91316.09;;;29.37
43292;BMP280;28754;47.700;7.924;2022-08-04T19:13:21;91322.88;;;29.35
43292;BMP280;28754;47.700;7.924;2022-08-04T19:16:08;91317.56;;;29.32
43292;BMP280;28754;47.700;7.924;2022-08-04T19:18:56;91325.88;;;29.30
43292;BMP280;28754;47.700;7.924;2022-08-04T19:21:44;91330.75;;;29.28
43292;BMP280;28754;47.700;7.924;2022-08-04T19:24:31;91327.72;;;29.26
43292;BMP280;28754;47.700;7.924;2022-08-04T19:27:17;91328.09;;;29.25
43292;BMP280;28754;47.700;7.924;2022-08-04T19:30:05;91331.09;;;29.20
43292;BMP280;28754;47.700;7.924;2022-08-04T19:32:52;91334.44;;;29.17
43292;BMP280;28754;47.700;7.924;2022-08-04T19:35:39;91329.91;;;29.14
43292;BMP280;28754;47.700;7.924;2022-08-04T19:38:27;91341.94;;;29.11
43292;BMP280;28754;47.700;7.924;2022-08-04T19:41:15;91338.16;;;29.09
43292;BMP280;28754;47.700;7.924;2022-08-04T19:44:06;91341.16;;;29.07
43292;BMP280;28754;47.700;7.924;2022-08-04T19:46:54;91343.75;;;29.04
43292;BMP280;28754;47.700;7.924;2022-08-04T19:49:41;91353.16;;;29.01
43292;BMP280;28754;47.700;7.924;2022-08-04T19:52:28;91356.19;;;29.00
43292;BMP280;28754;47.700;7.924;2022-08-04T19:55:15;91362.56;;;28.96
43292;BMP280;28754;47.700;7.924;2022-08-04T19:58:04;91363.69;;;28.95
43292;BMP280;28754;47.700;7.924;2022-08-04T20:00:51;91365.94;;;28.93
43292;BMP280;28754;47.700;7.924;2022-08-04T20:03:38;91373.44;;;28.87
43292;BMP280;28754;47.700;7.924;2022-08-04T20:06:25;91365.09;;;28.82
43292;BMP280;28754;47.700;7.924;2022-08-04T20:09:11;91376.38;;;28.79
43292;BMP280;28754;47.700;7.924;2022-08-04T20:11:58;91371.06;;;28.75
43292;BMP280;28754;47.700;7.924;2022-08-04T20:14:45;91378.63;;;28.77